Time;durP1;ratioP1;P1;durP2;ratioP2;P2;SDS_P1;SDS_P2;PMS_P1;PMS_P2;Temp;Humidity;BMP_temperature;BMP_pressure;BME280_temperature;BME280_humidity;BME280_pressure;Samples;Min_cycle;Max_cycle;Signal;HPM_P1;HPM_P2
2022/04/02 00:01:28;;;;;;;3.07;1.30;;;2.10;56.60;1.80;99727.00;;;;4835968;28;88498;-67
2022/04/02 00:03:54;;;;;;;2.27;1.67;;;2.00;56.60;1.80;99735.00;;;;4826058;28;108899;-68
2022/04/02 00:06:20;;;;;;;3.80;1.27;;;2.00;56.90;1.70;99727.00;;;;4816091;28;109003;-66
2022/04/02 00:08:46;;;;;;;2.60;1.43;;;2.00;57.00;1.70;99723.00;;;;4833563;28;107728;-67
2022/04/02 00:11:12;;;;;;;2.50;0.80;;;2.00;57.30;1.60;99725.00;;;;4833577;28;118854;-66
2022/04/02 00:13:38;;;;;;;4.67;1.67;;;1.90;57.40;1.60;99732.00;;;;4835038;28;97741;-67
2022/04/02 00:16:05;;;;;;;1.70;0.90;;;1.80;57.60;1.50;99736.00;;;;4838322;28;87804;-67
2022/04/02 00:18:31;;;;;;;1.93;1.40;;;1.90;57.70;1.50;99724.00;;;;4836208;28;89770;-67
2022/04/02 00:20:58;;;;;;;2.17;1.50;;;2.30;58.00;1.50;99739.00;;;;4837582;28;92407;-66
2022/04/02 00:23:36;;;;;;;4.20;1.57;;;1.70;57.90;1.50;99737.00;;;;4839202;28;87856;-67
2022/04/02 00:26:15;;;;;;;2.80;1.27;;;1.70;57.90;1.40;99737.00;;;;4820811;28;87412;-67
2022/04/02 00:28:43;;;;;;;2.00;1.10;;;1.80;58.00;1.40;99744.00;;;;4837957;28;87814;-68
2022/04/02 00:31:12;;;;;;;1.53;1.43;;;1.60;57.90;1.40;99741.00;;;;4837105;28;87860;-68
2022/04/02 00:33:39;;;;;;;1.63;1.37;;;1.60;58.00;1.40;99750.00;;;;4819852;28;88907;-66
2022/04/02 00:36:05;;;;;;;1.20;1.00;;;1.60;58.20;1.40;99742.00;;;;4837297;28;88011;-67
2022/04/02 00:38:32;;;;;;;1.10;0.93;;;1.60;58.40;1.40;99736.00;;;;4837109;28;88890;-66
2022/04/02 00:40:58;;;;;;;2.03;1.10;;;1.60;58.50;1.40;99747.00;;;;4837460;28;88918;-67
2022/04/02 00:43:28;;;;;;;2.73;1.23;;;1.60;58.60;1.40;99748.00;;;;4831430;28;87769;-67
2022/04/02 00:45:57;;;;;;;1.93;1.20;;;1.60;58.60;1.40;99748.00;;;;4812636;28;88331;-67
2022/04/02 00:48:24;;;;;;;3.50;1.30;;;2.10;58.80;1.40;99743.00;;;;4838299;28;88655;-67
2022/04/02 00:50:55;;;;;;;3.47;1.17;;;1.70;58.80;1.40;99751.00;;;;4838132;28;88267;-67
2022/04/02 00:53:29;;;;;;;1.70;0.80;;;1.60;58.70;1.40;99744.00;;;;4838312;28;87910;-66
2022/04/02 00:55:55;;;;;;;1.67;1.30;;;1.60;58.70;1.40;99750.00;;;;4836028;28;88084;-66
2022/04/02 00:58:21;;;;;;;2.30;0.63;;;1.60;59.30;1.40;99754.00;;;;4834695;28;119798;-66
2022/04/02 01:00:47;;;;;;;3.13;1.30;;;1.70;58.90;1.40;99760.00;;;;4836194;28;118545;-68
2022/04/02 01:03:13;;;;;;;3.03;1.00;;;1.70;59.00;1.40;99756.00;;;;4836401;28;106290;-67
2022/04/02 01:05:40;;;;;;;1.40;1.30;;;1.70;59.50;1.40;99761.00;;;;4837319;28;87819;-67
2022/04/02 01:08:05;;;;;;;2.97;1.17;;;1.70;59.10;1.40;99759.00;;;;4838129;28;88323;-67
2022/04/02 01:10:38;;;;;;;2.63;1.27;;;1.70;59.20;1.40;99766.00;;;;4836060;28;117701;-68
2022/04/02 01:13:05;;;;;;;3.70;0.87;;;1.70;59.20;1.40;99758.00;;;;4837999;28;87933;-67
2022/04/02 01:15:31;;;;;;;1.83;1.20;;;1.60;59.30;1.40;99758.00;;;;4837361;28;89253;-67
2022/04/02 01:17:57;;;;;;;2.13;1.60;;;1.70;59.30;1.40;99764.00;;;;4835245;28;88172;-67
2022/04/02 01:20:24;;;;;;;5.23;1.83;;;1.70;59.40;1.40;99773.00;;;;4837965;28;89043;-67
2022/04/02 01:22:50;;;;;;;1.20;0.77;;;1.60;59.30;1.40;99769.00;;;;4819301;28;94476;-67
2022/04/02 01:25:16;;;;;;;1.07;0.70;;;1.60;59.50;1.40;99775.00;;;;4837661;28;87917;-67
2022/04/02 01:27:46;;;;;;;1.27;0.87;;;1.60;59.60;1.30;99764.00;;;;4836234;28;117759;-66
2022/04/02 01:30:13;;;;;;;1.17;1.00;;;1.60;59.60;1.30;99781.00;;;;4837465;28;88296;-67
2022/04/02 01:32:39;;;;;;;1.33;1.10;;;1.50;59.70;1.20;99780.00;;;;4838161;28;87793;-68
2022/04/02 01:35:08;;;;;;;1.27;0.97;;;1.50;59.80;1.20;99773.00;;;;4836869;28;103649;-68
2022/04/02 01:37:34;;;;;;;2.43;1.00;;;1.40;59.80;1.10;99768.00;;;;4839950;28;89031;-69
2022/04/02 01:40:03;;;;;;;4.40;1.10;;;1.30;59.90;1.00;99774.00;;;;4819448;28;90147;-67
2022/04/02 01:42:28;;;;;;;0.80;0.80;;;0.70;60.30;0.90;99777.00;;;;4837253;28;87762;-67
2022/04/02 01:44:54;;;;;;;1.80;1.27;;;1.20;60.10;0.80;99776.00;;;;4836432;28;108841;-67
2022/04/02 01:47:21;;;;;;;1.03;1.03;;;1.10;60.30;0.70;99780.00;;;;4836213;28;116012;-67
2022/04/02 01:49:48;;;;;;;3.23;1.43;;;1.00;60.50;0.60;99777.00;;;;4836376;28;89454;-66
2022/04/02 01:52:19;;;;;;;0.83;0.80;;;1.00;60.70;0.50;99780.00;;;;4837856;28;87882;-66
2022/04/02 01:54:48;;;;;;;2.77;0.97;;;0.90;60.90;0.50;99780.00;;;;4834737;28;87889;-68
2022/04/02 01:57:15;;;;;;;1.33;0.93;;;0.80;61.20;0.40;99778.00;;;;4819005;28;105144;-67
2022/04/02 01:59:44;;;;;;;3.27;0.87;;;0.70;61.60;0.30;99785.00;;;;4836683;28;108940;-67
2022/04/02 02:02:10;;;;;;;1.03;0.90;;;0.60;61.80;0.20;99784.00;;;;4837340;28;88181;-66
2022/04/02 02:04:37;;;;;;;2.80;1.53;;;0.50;62.40;0.20;99789.00;;;;4819455;28;99658;-67
2022/04/02 02:07:04;;;;;;;0.90;0.67;;;0.50;62.70;0.10;99792.00;;;;4834369;28;87797;-67
2022/04/02 02:09:30;;;;;;;1.33;1.00;;;0.40;62.90;0.00;99789.00;;;;4836153;28;104334;-67
2022/04/02 02:11:56;;;;;;;1.47;1.10;;;0.40;63.10;0.00;99779.00;;;;4836558;28;88907;-68
2022/04/02 02:14:22;;;;;;;3.53;1.07;;;0.30;63.50;0.00;99781.00;;;;4835052;28;87801;-66
2022/04/02 02:16:48;;;;;;;0.73;0.73;;;0.30;63.80;-0.10;99780.00;;;;4819439;28;88245;-68
2022/04/02 02:19:14;;;;;;;2.00;1.23;;;-0.40;63.30;-0.10;99773.00;;;;4818562;28;107894;-66
2022/04/02 02:21:39;;;;;;;1.10;0.87;;;0.20;64.10;-0.20;99770.00;;;;4836049;28;110162;-66
2022/04/02 02:24:06;;;;;;;0.80;0.80;;;0.10;64.20;-0.20;99774.00;;;;4836483;28;87831;-66
2022/04/02 02:26:32;;;;;;;3.37;1.50;;;0.10;64.50;-0.20;99781.00;;;;4836849;28;88897;-67
2022/04/02 02:28:58;;;;;;;0.90;0.90;;;0.20;65.20;-0.20;99784.00;;;;4836423;28;106849;-67
2022/04/02 02:31:24;;;;;;;0.80;0.80;;;0.10;65.80;-0.20;99783.00;;;;4835744;28;110308;-66
2022/04/02 02:36:34;;;;;;;1.27;1.07;;;0.10;65.90;-0.20;99779.00;;;;4828772;28;88921;-68
2022/04/02 02:39:00;;;;;;;1.43;1.20;;;0.10;66.40;-0.20;99787.00;;;;4835636;28;118119;-67
2022/04/02 02:41:25;;;;;;;1.83;1.23;;;0.10;66.70;-0.20;99784.00;;;;4835229;28;110158;-67
2022/04/02 02:43:51;;;;;;;1.50;1.40;;;0.20;66.90;-0.20;99778.00;;;;4835425;28;108330;-68
2022/04/02 02:46:17;;;;;;;1.20;1.07;;;0.10;67.00;-0.20;99785.00;;;;4835188;28;117752;-68
2022/04/02 02:48:47;;;;;;;2.43;1.20;;;0.10;67.50;-0.10;99780.00;;;;4835699;28;89030;-66
2022/04/02 02:51:13;;;;;;;1.83;1.00;;;0.20;67.80;-0.10;99793.00;;;;4839642;28;87811;-66
2022/04/02 02:53:40;;;;;;;2.13;1.10;;;0.20;68.10;-0.10;99799.00;;;;4837136;28;87709;-67
2022/04/02 02:56:06;;;;;;;3.57;0.90;;;0.20;68.60;-0.10;99790.00;;;;4817699;28;87991;-67
2022/04/02 02:58:32;;;;;;;1.33;0.80;;;0.50;69.00;-0.10;99792.00;;;;4836117;28;88388;-67
2022/04/02 03:00:58;;;;;;;3.57;0.90;;;0.30;69.20;-0.10;99789.00;;;;4834019;28;110497;-68
2022/04/02 03:03:24;;;;;;;1.53;1.43;;;0.20;69.40;0.00;99790.00;;;;4835414;28;104963;-67
2022/04/02 03:05:50;;;;;;;3.27;1.60;;;0.20;69.60;0.00;99791.00;;;;4835954;28;89034;-66
2022/04/02 03:08:16;;;;;;;4.40;1.13;;;0.20;70.30;0.00;99789.00;;;;4834140;28;117347;-67
2022/04/02 03:10:44;;;;;;;2.13;1.47;;;0.30;70.70;0.00;99795.00;;;;4835326;28;87856;-67
2022/04/02 03:13:10;;;;;;;1.30;1.20;;;0.30;71.20;0.00;99798.00;;;;4818977;28;87640;-68
2022/04/02 03:15:35;;;;;;;2.83;1.10;;;0.30;71.30;0.00;99808.00;;;;4827942;28;91889;-67
2022/04/02 03:18:04;;;;;;;1.00;0.83;;;0.20;71.40;0.00;99800.00;;;;4835810;28;98866;-67
2022/04/02 03:20:31;;;;;;;2.00;1.33;;;0.80;72.30;0.00;99797.00;;;;4836044;28;87860;-67
2022/04/02 03:22:57;;;;;;;3.03;1.77;;;0.30;72.30;0.00;99818.00;;;;4842681;28;101819;-67
2022/04/02 03:25:23;;;;;;;1.30;1.20;;;0.20;72.90;0.00;99804.00;;;;4833425;28;89314;-67
2022/04/02 03:27:50;;;;;;;1.20;1.00;;;0.30;73.30;0.00;99805.00;;;;4836135;28;87775;-68
2022/04/02 03:30:38;;;;;;;2.60;1.37;;;0.20;73.80;-0.10;99807.00;;;;4832212;28;112125;-66
2022/04/02 03:33:04;;;;;;;0.90;0.90;;;0.30;74.30;-0.10;99811.00;;;;4818166;28;87835;-67
2022/04/02 03:35:30;;;;;;;1.20;0.80;;;0.20;74.50;-0.10;99810.00;;;;4816519;28;90171;-67
2022/04/02 03:37:55;;;;;;;1.97;1.10;;;0.20;75.00;-0.10;99822.00;;;;4834836;28;88532;-67
2022/04/02 03:40:24;;;;;;;1.80;0.87;;;0.20;75.10;-0.10;99817.00;;;;4833616;28;109553;-67
2022/04/02 03:42:52;;;;;;;2.10;1.23;;;0.20;75.40;-0.10;99818.00;;;;4835327;28;87039;-66
2022/04/02 03:45:20;;;;;;;1.17;1.07;;;0.20;75.80;-0.10;99812.00;;;;4834741;28;88876;-67
2022/04/02 03:47:47;;;;;;;2.10;1.37;;;0.10;76.50;-0.10;99810.00;;;;4833886;28;87965;-67
2022/04/02 03:50:14;;;;;;;1.33;1.17;;;0.10;76.90;-0.10;99822.00;;;;4816195;28;89455;-66
2022/04/02 03:52:40;;;;;;;2.77;1.40;;;0.10;77.90;-0.20;99829.00;;;;4835811;28;87924;-66
2022/04/02 03:55:07;;;;;;;1.17;0.70;;;0.20;78.30;-0.20;99830.00;;;;4834403;28;89978;-67
2022/04/02 03:57:34;;;;;;;3.77;1.30;;;0.20;79.20;-0.20;99828.00;;;;4834554;28;88944;-67
2022/04/02 04:00:00;;;;;;;1.33;1.23;;;0.10;79.10;-0.20;99837.00;;;;4834984;28;88550;-67
2022/04/02 04:02:26;;;;;;;1.07;0.70;;;0.10;80.10;-0.30;99822.00;;;;4833080;28;88127;-66
2022/04/02 04:04:52;;;;;;;1.17;1.07;;;0.00;81.30;-0.30;99827.00;;;;4834749;28;88728;-66
2022/04/02 04:07:19;;;;;;;5.17;1.33;;;0.10;80.90;-0.30;99826.00;;;;4835505;28;88569;-67
2022/04/02 04:09:45;;;;;;;3.13;1.57;;;0.00;80.90;-0.30;99826.00;;;;4834536;28;88054;-67
2022/04/02 04:12:10;;;;;;;1.60;1.10;;;-0.10;81.10;-0.40;99833.00;;;;4833964;28;109147;-66
2022/04/02 04:14:37;;;;;;;1.50;1.23;;;0.00;81.90;-0.40;99841.00;;;;4836842;28;90289;-68
2022/04/02 04:17:03;;;;;;;1.30;0.87;;;-0.10;82.40;-0.40;99837.00;;;;4820530;28;88760;-66
2022/04/02 04:19:28;;;;;;;0.80;0.80;;;-0.10;82.80;-0.50;99846.00;;;;4834449;28;99704;-67
2022/04/02 04:21:55;;;;;;;1.43;1.00;;;-0.20;83.00;-0.50;99834.00;;;;4835171;28;87897;-67
2022/04/02 04:24:21;;;;;;;2.77;1.60;;;-0.10;83.50;-0.60;99832.00;;;;4833175;28;87915;-66
2022/04/02 04:26:47;;;;;;;1.90;1.30;;;-0.10;84.00;-0.60;99843.00;;;;4835635;28;88902;-67
2022/04/02 04:29:12;;;;;;;1.53;1.37;;;-0.20;84.20;-0.60;99842.00;;;;4834802;28;87983;-68
2022/04/02 04:31:38;;;;;;;1.80;1.40;;;-0.30;84.60;-0.70;99839.00;;;;4833720;28;109002;-66
2022/04/02 04:34:04;;;;;;;1.20;1.10;;;-0.30;85.00;-0.70;99848.00;;;;4832135;28;87812;-67
2022/04/02 04:36:30;;;;;;;2.53;1.40;;;-0.30;85.80;-0.70;99847.00;;;;4833929;28;117678;-67
2022/04/02 04:38:57;;;;;;;1.17;1.07;;;-0.40;86.60;-0.70;99859.00;;;;4835076;28;89168;-67
2022/04/02 04:41:24;;;;;;;1.37;0.93;;;-0.40;87.00;-0.80;99842.00;;;;4834886;28;87601;-66
2022/04/02 04:43:50;;;;;;;1.43;1.33;;;-0.50;87.60;-0.80;99844.00;;;;4834214;28;88570;-66
2022/04/02 04:46:19;;;;;;;1.53;1.10;;;-0.40;88.80;-0.80;99857.00;;;;4834555;28;89134;-67
2022/04/02 04:48:45;;;;;;;2.13;1.20;;;0.20;89.60;-0.90;99857.00;;;;4833974;28;99945;-68
2022/04/02 04:51:12;;;;;;;1.33;1.00;;;-0.50;89.70;-0.90;99861.00;;;;4836336;28;88026;-67
2022/04/02 04:53:39;;;;;;;1.53;0.93;;;-0.60;90.00;-0.90;99852.00;;;;4835140;28;105857;-66
2022/04/02 04:56:06;;;;;;;3.07;1.33;;;-0.50;90.30;-0.80;99863.00;;;;4845668;28;88613;-67
2022/04/02 04:58:32;;;;;;;1.47;1.20;;;-0.50;90.70;-0.90;99866.00;;;;4833858;28;97883;-66
2022/04/02 05:00:59;;;;;;;2.83;1.80;;;-0.50;90.90;-0.80;99868.00;;;;4836006;28;88299;-67
2022/04/02 05:03:25;;;;;;;1.97;1.80;;;-0.50;91.30;-0.80;99878.00;;;;4836541;28;89009;-67
2022/04/02 05:05:53;;;;;;;2.20;1.00;;;-1.20;91.40;-0.80;99863.00;;;;4837668;28;88867;-66
2022/04/02 05:08:21;;;;;;;4.90;1.80;;;-0.60;91.80;-0.80;99863.00;;;;4835673;28;87908;-67
2022/04/02 05:10:47;;;;;;;1.87;1.30;;;-0.50;92.20;-0.70;99880.00;;;;4819438;28;87884;-66
2022/04/02 05:13:14;;;;;;;1.40;1.30;;;-0.40;92.50;-0.70;99884.00;;;;4819943;28;111324;-67
2022/04/02 05:15:44;;;;;;;2.17;1.37;;;-0.70;93.00;-0.70;99888.00;;;;4837079;28;88200;-66
2022/04/02 05:18:13;;;;;;;3.63;1.30;;;-0.40;93.30;-0.60;99893.00;;;;4838011;28;88032;-66
2022/04/02 05:20:41;;;;;;;2.40;1.67;;;-0.30;93.80;-0.60;99883.00;;;;4838498;28;87304;-68
2022/04/02 05:23:08;;;;;;;1.70;1.07;;;-0.30;94.00;-0.50;99889.00;;;;4837361;28;87776;-66
2022/04/02 05:25:35;;;;;;;1.37;1.27;;;-0.20;94.40;-0.40;99894.00;;;;4836083;28;117510;-67
2022/04/02 05:28:06;;;;;;;3.73;1.57;;;-0.20;94.60;-0.40;99887.00;;;;4836904;28;88767;-66
2022/04/02 05:30:39;;;;;;;1.30;0.87;;;-0.20;94.70;-0.30;99895.00;;;;4837238;28;87874;-66
2022/04/02 05:33:06;;;;;;;2.20;1.37;;;-0.10;94.70;-0.30;99903.00;;;;4837605;28;88194;-67
2022/04/02 05:35:31;;;;;;;3.67;2.13;;;0.00;94.70;-0.20;99895.00;;;;4837016;28;88526;-68
2022/04/02 05:37:57;;;;;;;4.73;1.77;;;0.00;95.00;-0.20;99899.00;;;;4834015;28;110816;-67
2022/04/02 05:40:23;;;;;;;2.67;1.37;;;0.00;95.20;-0.10;99895.00;;;;4836750;28;107601;-69
2022/04/02 05:42:48;;;;;;;9.23;1.93;;;0.10;95.10;-0.10;99900.00;;;;4836176;28;117960;-67
2022/04/02 05:45:17;;;;;;;2.07;1.43;;;0.10;95.20;0.00;99905.00;;;;4836134;28;117232;-67
2022/04/02 05:47:45;;;;;;;58.07;27.50;;;0.20;95.40;0.10;99901.00;;;;4819270;28;87866;-67
2022/04/02 05:50:12;;;;;;;11.00;5.47;;;0.30;95.80;0.10;99911.00;;;;4835864;28;87917;-68
2022/04/02 05:52:39;;;;;;;8.07;3.90;;;1.10;96.00;0.20;99908.00;;;;4817901;28;89297;-68
2022/04/02 05:55:13;;;;;;;6.93;3.40;;;0.40;95.70;0.20;99918.00;;;;4836706;28;89322;-67
2022/04/02 05:57:42;;;;;;;5.53;2.93;;;0.50;95.70;0.30;99914.00;;;;4837278;28;87915;-67
2022/04/02 06:00:11;;;;;;;3.27;2.50;;;0.60;96.00;0.40;99904.00;;;;4835903;28;108640;-67
2022/04/02 06:02:38;;;;;;;18.30;15.07;;;0.60;96.30;0.50;99924.00;;;;4836692;28;88194;-67
2022/04/02 06:05:05;;;;;;;4.00;3.07;;;0.70;96.00;0.60;99924.00;;;;4835458;28;88466;-67
2022/04/02 06:07:33;;;;;;;2.93;2.60;;;1.50;96.20;0.70;99934.00;;;;4834233;28;88006;-68
2022/04/02 06:10:02;;;;;;;3.30;2.47;;;1.20;96.00;0.80;99931.00;;;;4835586;28;87142;-66
2022/04/02 06:12:28;;;;;;;2.37;1.70;;;1.00;95.70;0.90;99928.00;;;;4835010;28;88592;-68
2022/04/02 06:14:54;;;;;;;3.77;2.57;;;1.00;95.60;1.00;99940.00;;;;4835949;28;88835;-68
2022/04/02 06:17:20;;;;;;;2.60;2.40;;;1.20;95.50;1.00;99939.00;;;;4835216;28;108822;-67
2022/04/02 06:19:45;;;;;;;4.63;2.33;;;1.30;95.50;1.10;99937.00;;;;4835760;28;101827;-67
2022/04/02 06:22:11;;;;;;;5.63;3.53;;;1.40;95.30;1.10;99941.00;;;;4835263;28;118127;-67
2022/04/02 06:24:37;;;;;;;5.43;2.27;;;1.30;95.10;1.20;99946.00;;;;4836815;28;87879;-67
2022/04/02 06:27:03;;;;;;;2.03;1.43;;;1.40;94.90;1.30;99954.00;;;;4835990;28;87986;-67
2022/04/02 06:29:29;;;;;;;2.57;1.30;;;1.50;94.80;1.40;99952.00;;;;4836321;28;87835;-67
2022/04/02 06:31:55;;;;;;;1.97;1.87;;;1.60;94.60;1.60;99948.00;;;;4835995;28;88849;-67
2022/04/02 06:34:21;;;;;;;3.10;1.80;;;1.70;94.50;1.70;99948.00;;;;4836747;28;108398;-67
2022/04/02 06:36:47;;;;;;;0.90;0.90;;;1.80;94.10;1.80;99940.00;;;;4833665;28;87655;-67
2022/04/02 06:39:13;;;;;;;1.90;1.03;;;1.90;93.80;1.90;99947.00;;;;4831077;28;96133;-67
2022/04/02 06:41:39;;;;;;;2.93;1.63;;;2.00;93.50;2.00;99939.00;;;;4835205;28;117759;-68
2022/04/02 06:44:08;;;;;;;2.53;1.50;;;2.40;93.20;2.10;99953.00;;;;4836470;28;89318;-68
2022/04/02 06:46:37;;;;;;;1.40;1.23;;;2.20;92.80;2.20;99944.00;;;;4836593;28;87866;-67
2022/04/02 06:49:04;;;;;;;2.43;1.30;;;2.40;92.40;2.30;99939.00;;;;4836078;28;88238;-67
2022/04/02 06:51:30;;;;;;;3.60;1.60;;;2.50;92.00;2.40;99941.00;;;;4834671;28;110901;-68
2022/04/02 06:53:56;;;;;;;2.37;1.30;;;2.50;91.50;2.40;99951.00;;;;4828423;28;114256;-67
2022/04/02 06:56:21;;;;;;;2.80;1.53;;;2.60;91.20;2.50;99946.00;;;;4834497;28;109551;-66
2022/04/02 06:58:47;;;;;;;2.83;1.93;;;3.00;90.90;2.60;99953.00;;;;4836816;28;87169;-68
2022/04/02 07:01:13;;;;;;;0.70;0.67;;;2.70;90.50;2.60;99947.00;;;;4834381;28;116203;-67
2022/04/02 07:03:39;;;;;;;4.47;1.40;;;2.80;90.30;2.70;99955.00;;;;4835669;28;116454;-66
2022/04/02 07:06:04;;;;;;;2.47;1.57;;;2.90;90.00;2.90;99952.00;;;;4834551;28;110833;-66
2022/04/02 07:08:31;;;;;;;2.00;1.50;;;3.00;89.10;3.00;99957.00;;;;4835066;28;108902;-67
2022/04/02 07:10:57;;;;;;;1.57;0.80;;;3.40;88.40;3.10;99955.00;;;;4835114;28;88381;-66
2022/04/02 07:13:26;;;;;;;3.70;1.17;;;3.30;87.20;3.30;99956.00;;;;4836370;28;94938;-66
2022/04/02 07:15:51;;;;;;;1.50;0.87;;;3.40;86.90;3.50;99959.00;;;;4835907;28;88132;-67
2022/04/02 07:18:19;;;;;;;2.27;1.60;;;4.20;86.50;3.70;99963.00;;;;4835292;28;109499;-66
2022/04/02 07:20:53;;;;;;;4.17;1.17;;;4.40;85.60;3.90;99962.00;;;;4833359;28;88869;-68
2022/04/02 07:23:20;;;;;;;3.80;1.33;;;3.90;84.30;4.00;99967.00;;;;4818130;28;88927;-67
2022/04/02 07:25:45;;;;;;;3.43;1.47;;;4.10;82.80;4.10;99963.00;;;;4834621;28;101621;-68
2022/04/02 07:28:11;;;;;;;3.17;1.40;;;4.20;80.90;4.30;99963.00;;;;4834284;28;108467;-67
2022/04/02 07:30:38;;;;;;;1.90;1.10;;;4.70;80.50;4.40;99966.00;;;;4834548;28;90096;-68
2022/04/02 07:33:05;;;;;;;1.23;1.07;;;4.50;79.70;4.60;99974.00;;;;4835694;28;88756;-67
2022/04/02 07:35:40;;;;;;;1.63;1.43;;;4.70;78.50;4.70;99969.00;;;;4835892;28;87893;-67
2022/04/02 07:38:32;;;;;;;1.30;1.13;;;4.80;77.20;4.90;99972.00;;;;4835426;28;88181;-68
2022/04/02 07:41:42;;;;;;;1.87;1.23;;;4.90;75.70;5.00;99971.00;;;;4833261;28;87950;-67
2022/04/02 07:45:08;;;;;;;3.43;1.67;;;5.10;74.40;5.20;99986.00;;;;4817771;28;88083;-68
2022/04/02 07:47:37;;;;;;;3.60;1.30;;;5.30;72.20;5.20;99989.00;;;;4790314;29;87815;-67
2022/04/02 07:50:09;;;;;;;4.40;1.63;;;5.30;71.00;5.30;99980.00;;;;4824675;28;87188;-67
2022/04/02 07:52:39;;;;;;;3.40;1.27;;;5.40;70.40;5.30;99987.00;;;;4835125;28;88534;-67
2022/04/02 07:55:08;;;;;;;1.70;1.00;;;5.50;69.80;5.40;99986.00;;;;4833799;28;87888;-68
2022/04/02 07:57:44;;;;;;;4.33;1.33;;;5.50;69.80;5.40;99989.00;;;;4834761;28;88958;-68
2022/04/02 08:00:13;;;;;;;1.43;1.30;;;5.60;68.60;5.40;100000.00;;;;4835246;28;87947;-67
2022/04/02 08:02:45;;;;;;;2.00;1.20;;;5.50;67.70;5.40;99985.00;;;;4834754;28;88911;-67
2022/04/02 08:05:16;;;;;;;2.07;1.40;;;5.60;66.80;5.40;99987.00;;;;4834421;28;88272;-67
2022/04/02 08:07:52;;;;;;;4.80;2.03;;;5.90;66.70;5.40;99982.00;;;;4834729;28;99314;-68
2022/04/02 08:10:23;;;;;;;6.03;2.77;;;5.50;66.30;5.40;99993.00;;;;4833631;28;88124;-68
2022/04/02 08:12:49;;;;;;;4.93;2.20;;;6.30;66.40;5.50;99984.00;;;;4817184;28;87819;-67
2022/04/02 08:15:20;;;;;;;1.80;1.53;;;6.30;66.20;5.70;99993.00;;;;4835460;28;98573;-68
2022/04/02 08:17:53;;;;;;;2.57;1.20;;;6.20;65.90;5.80;99999.00;;;;4833498;28;88067;-68
2022/04/02 08:20:20;;;;;;;1.63;1.20;;;6.00;64.00;6.00;99997.00;;;;4834217;28;88015;-67
2022/04/02 08:22:46;;;;;;;1.73;0.87;;;6.40;63.90;6.20;99994.00;;;;4833600;28;112222;-67
2022/04/02 08:25:14;;;;;;;2.67;1.23;;;6.30;60.70;6.30;100000.00;;;;4834834;28;88826;-68
2022/04/02 08:27:45;;;;;;;0.93;0.93;;;6.30;60.30;6.50;100007.00;;;;4834229;28;87790;-68
2022/04/02 08:30:28;;;;;;;3.13;1.20;;;6.50;58.90;6.60;99994.00;;;;4834863;28;87715;-69
2022/04/02 08:33:28;;;;;;;1.00;0.70;;;6.70;57.50;6.90;99999.00;;;;4832831;28;88784;-68
2022/04/02 08:36:21;;;;;;;0.80;0.70;;;6.90;57.00;7.10;100002.00;;;;4833457;28;87796;-67
2022/04/02 08:39:00;;;;;;;2.20;1.27;;;7.00;55.60;7.40;99985.00;;;;4838539;28;87941;-67
2022/04/02 08:41:56;;;;;;;1.07;0.97;;;7.30;52.10;7.40;100001.00;;;;4837882;28;99218;-68
2022/04/02 08:44:37;;;;;;;3.17;0.90;;;7.40;51.40;7.50;99999.00;;;;4835227;28;109887;-67
2022/04/02 08:47:12;;;;;;;5.17;0.90;;;7.50;51.60;7.60;100009.00;;;;4830542;28;87949;-66
2022/04/02 08:49:42;;;;;;;1.13;0.93;;;7.60;50.80;7.70;100004.00;;;;4835213;28;88634;-68
2022/04/02 08:52:42;;;;;;;2.17;0.63;;;7.70;49.70;7.70;99990.00;;;;4839213;28;87934;-69
2022/04/02 08:55:15;;;;;;;1.23;0.70;;;7.70;49.40;7.80;100013.00;;;;4841887;28;111281;-68
2022/04/02 08:57:52;;;;;;;0.73;0.73;;;7.80;49.30;7.90;99997.00;;;;4837759;28;87897;-68
2022/04/02 09:00:23;;;;;;;2.10;0.97;;;7.90;49.00;8.00;100019.00;;;;4837039;28;89953;-67
2022/04/02 09:03:12;;;;;;;1.23;0.87;;;8.00;48.80;8.10;100008.00;;;;4837771;28;88149;-67
2022/04/02 09:06:18;;;;;;;1.93;1.23;;;8.10;48.60;8.20;100015.00;;;;4834597;28;88623;-68
2022/04/02 09:09:37;;;;;;;1.83;1.07;;;8.30;48.20;8.30;100014.00;;;;4838503;28;87354;-68
2022/04/02 09:12:49;;;;;;;3.20;0.93;;;8.30;47.50;8.40;100023.00;;;;4834138;28;87876;-67
2022/04/02 09:16:04;;;;;;;0.70;0.70;;;8.40;47.90;8.50;100029.00;;;;4834417;28;88242;-68
2022/04/02 09:18:39;;;;;;;0.70;0.63;;;8.60;47.20;8.60;100029.00;;;;4816456;28;89409;-68
2022/04/02 09:22:07;;;;;;;0.80;0.80;;;8.60;46.80;8.70;100024.00;;;;4837542;28;89148;-67
2022/04/02 09:25:14;;;;;;;0.83;0.83;;;8.70;46.30;8.60;100025.00;;;;4800791;28;88002;-67
2022/04/02 09:28:18;;;;;;;1.50;0.80;;;8.70;45.60;8.60;100028.00;;;;4834240;28;87882;-67
2022/04/02 09:31:39;;;;;;;3.33;1.23;;;8.60;45.10;8.60;100040.00;;;;4835769;28;87880;-68
2022/04/02 09:34:30;;;;;;;1.97;0.77;;;8.60;45.00;8.80;100042.00;;;;4838048;28;87969;-68
2022/04/02 09:37:09;;;;;;;1.23;1.00;;;8.70;43.80;8.80;100043.00;;;;4831641;28;87816;-67
2022/04/02 09:40:02;;;;;;;1.27;0.80;;;8.70;43.60;8.90;100045.00;;;;4820040;28;87784;-67
2022/04/02 09:42:51;;;;;;;0.97;0.70;;;8.80;43.50;9.10;100046.00;;;;4836622;28;87984;-67
2022/04/02 09:45:27;;;;;;;1.87;0.70;;;9.00;44.10;9.30;100034.00;;;;4834670;28;105008;-68
2022/04/02 09:48:01;;;;;;;1.07;0.70;;;9.10;44.80;9.50;100030.00;;;;4834514;28;102969;-68
2022/04/02 09:50:31;;;;;;;3.13;1.00;;;9.30;43.70;9.60;100045.00;;;;4829709;28;90848;-68
2022/04/02 09:53:13;;;;;;;0.83;0.67;;;9.40;43.00;9.40;100037.00;;;;4829437;28;88870;-69
2022/04/02 09:56:06;;;;;;;2.27;0.97;;;9.30;42.30;9.30;100037.00;;;;4836355;28;88815;-69
2022/04/02 09:59:04;;;;;;;0.70;0.63;;;9.30;42.50;9.30;100020.00;;;;4837931;28;88026;-68
2022/04/02 10:02:06;;;;;;;0.63;0.43;;;9.30;42.70;9.30;100032.00;;;;4837081;28;87998;-68
2022/04/02 10:04:53;;;;;;;1.47;0.90;;;9.30;41.60;9.30;100031.00;;;;4834126;28;89699;-68
2022/04/02 10:07:54;;;;;;;2.90;1.13;;;9.20;42.40;9.30;100026.00;;;;4819227;28;89123;-67
2022/04/02 10:10:26;;;;;;;1.93;0.63;;;9.30;41.00;9.30;100030.00;;;;4818166;28;100419;-68
2022/04/02 10:12:54;;;;;;;1.73;1.50;;;9.20;41.00;9.30;100032.00;;;;4834289;28;87594;-67
2022/04/02 10:15:22;;;;;;;3.20;2.90;;;9.20;41.10;9.50;100034.00;;;;4836710;28;88702;-68
2022/04/02 10:17:51;;;;;;;1.23;1.13;;;9.30;41.00;9.60;100026.00;;;;4835745;28;111470;-67
2022/04/02 10:20:20;;;;;;;4.03;1.20;;;9.40;40.80;9.90;100030.00;;;;4847210;28;87720;-68
2022/04/02 10:22:46;;;;;;;0.70;0.67;;;9.70;41.40;10.20;100024.00;;;;4847224;28;88119;-67
2022/04/02 10:25:14;;;;;;;1.40;0.50;;;10.00;41.60;10.60;100023.00;;;;4835896;28;95510;-68
2022/04/02 10:27:44;;;;;;;1.10;1.00;;;10.20;42.00;11.00;100033.00;;;;4846172;28;88869;-68
2022/04/02 10:30:16;;;;;;;1.67;1.27;;;10.60;42.00;11.50;100036.00;;;;4836002;28;87565;-68
2022/04/02 10:32:55;;;;;;;1.57;0.70;;;11.10;41.60;11.80;100036.00;;;;4837120;28;87429;-68
2022/04/02 10:35:24;;;;;;;0.30;0.30;;;11.50;40.50;12.00;100040.00;;;;4818954;28;88235;-68
2022/04/02 10:38:10;;;;;;;1.90;1.13;;;11.70;40.00;12.20;100037.00;;;;4849313;28;87902;-68
2022/04/02 10:40:53;;;;;;;3.50;1.47;;;11.90;39.70;12.30;100030.00;;;;4836217;28;88790;-67
2022/04/02 10:43:28;;;;;;;1.57;1.10;;;12.00;39.20;12.30;100034.00;;;;4818352;28;88268;-67
2022/04/02 10:45:56;;;;;;;1.23;0.73;;;12.10;39.00;12.40;100035.00;;;;4835330;28;88542;-67
2022/04/02 10:48:56;;;;;;;2.27;0.50;;;12.20;38.90;12.30;100036.00;;;;4835942;28;88086;-68
2022/04/02 10:51:24;;;;;;;1.33;1.03;;;12.10;38.30;12.10;100041.00;;;;4828973;28;87990;-67
2022/04/02 10:54:09;;;;;;;1.40;1.13;;;12.00;38.20;12.00;100030.00;;;;4835484;28;87853;-68
2022/04/02 10:56:47;;;;;;;1.30;0.60;;;12.00;38.70;12.10;100040.00;;;;4817556;28;89182;-68
2022/04/02 10:59:18;;;;;;;4.10;1.00;;;11.90;38.90;11.90;100040.00;;;;4835644;28;87409;-68
2022/04/02 11:01:46;;;;;;;0.97;0.50;;;11.80;38.30;11.80;100037.00;;;;4836134;28;87920;-68
2022/04/02 11:04:51;;;;;;;1.17;0.67;;;11.70;38.40;11.80;100040.00;;;;4835562;28;87764;-69
2022/04/02 11:07:37;;;;;;;1.10;0.70;;;11.70;38.80;11.70;100044.00;;;;4830144;28;89350;-68
2022/04/02 11:10:04;;;;;;;2.17;0.93;;;11.60;38.00;11.70;100041.00;;;;4833250;28;89648;-67
2022/04/02 11:12:33;;;;;;;1.97;1.00;;;11.60;38.50;11.70;100040.00;;;;4836441;28;87966;-67
2022/04/02 11:15:19;;;;;;;0.90;0.70;;;11.60;38.70;11.80;100043.00;;;;4835141;28;87938;-68
2022/04/02 11:17:50;;;;;;;0.93;0.77;;;11.60;38.80;11.90;100040.00;;;;4836042;28;87860;-68
2022/04/02 11:20:20;;;;;;;1.10;1.00;;;11.70;39.20;11.80;100048.00;;;;4835029;28;109893;-67
2022/04/02 11:22:51;;;;;;;1.20;0.70;;;11.70;38.60;11.70;100041.00;;;;4835555;28;87714;-68
2022/04/02 11:25:28;;;;;;;1.30;0.70;;;11.60;38.20;11.60;100037.00;;;;4836756;28;87360;-67